RRR4140 EGPL-EGVN
Flight info
| Callsign | RRR4140 |
|---|---|
| Flight time | N/A |
| Altitude | 31000 |
| Route | TOBMO DCT BRUCE DCT INKOB Q39 DANDI UL28 PENIL L10 HON |
| Aircraft | A400/H-SDE2E3FGHIJ4J5M1RWXY/LB1D1 |
Departure
| Time | 2026-05-03 20:44 |
|---|---|
| Airport | Benbecula Airport (EGPL) |
Arrival
| Time | N/A |
|---|---|
| Airport | RAF Brize Norton (EGVN) |
| Time | Latitude | Longitude | Altitude | Speed | Heading |
|---|---|---|---|---|---|
| 2026-05-03 20:38 | 57.48526 | -7.35145 | 32 ft | 0 kts | 225° |
| 2026-05-03 20:40 | 57.48510 | -7.35185 | 32 ft | 7 kts | 234° |
| 2026-05-03 20:40 | 57.48467 | -7.35297 | 31 ft | 14 kts | 234° |
| 2026-05-03 20:40 | 57.48402 | -7.35470 | 35 ft | 21 kts | 236° |
| 2026-05-03 20:41 | 57.48307 | -7.35734 | 34 ft | 26 kts | 237° |
| 2026-05-03 20:41 | 57.48204 | -7.36016 | 33 ft | 27 kts | 238° |
| 2026-05-03 20:41 | 57.48098 | -7.36315 | 31 ft | 28 kts | 238° |
| 2026-05-03 20:41 | 57.47989 | -7.36620 | 35 ft | 29 kts | 236° |
| 2026-05-03 20:42 | 57.47874 | -7.36934 | 35 ft | 30 kts | 233° |
| 2026-05-03 20:42 | 57.47762 | -7.37241 | 34 ft | 25 kts | 236° |
| 2026-05-03 20:42 | 57.47695 | -7.37467 | 37 ft | 10 kts | 218° |
| 2026-05-03 20:42 | 57.47680 | -7.37428 | 37 ft | 9 kts | 70° |
| 2026-05-03 20:43 | 57.47713 | -7.37336 | 36 ft | 0 kts | 55° |
| 2026-05-03 20:43 | 57.47820 | -7.37055 | 34 ft | 72 kts | 56° |
| 2026-05-03 20:43 | 57.48283 | -7.35839 | 54 ft | 153 kts | 51° |
| 2026-05-03 20:43 | 57.48934 | -7.34090 | 592 ft | 172 kts | 52° |
| 2026-05-03 20:44 | 57.49659 | -7.32151 | 1137 ft | 198 kts | 53° |
| 2026-05-03 20:44 | 57.50081 | -7.29499 | 1484 ft | 234 kts | 92° |
| 2026-05-03 20:44 | 57.49416 | -7.26704 | 2167 ft | 246 kts | 134° |
| 2026-05-03 20:44 | 57.47925 | -7.25255 | 3046 ft | 245 kts | 173° |
| 2026-05-03 20:45 | 57.46224 | -7.25371 | 3760 ft | 255 kts | 192° |
| 2026-05-03 20:45 | 57.44433 | -7.25825 | 4592 ft | 266 kts | 178° |
| 2026-05-03 20:45 | 57.42617 | -7.25023 | 5614 ft | 271 kts | 160° |
| 2026-05-03 20:45 | 57.40908 | -7.23445 | 6589 ft | 279 kts | 151° |
| 2026-05-03 20:46 | 57.39268 | -7.21459 | 7496 ft | 286 kts | 146° |
| 2026-05-03 20:46 | 57.37639 | -7.19290 | 8447 ft | 290 kts | 145° |
| 2026-05-03 20:46 | 57.35989 | -7.17076 | 9459 ft | 294 kts | 145° |
| 2026-05-03 20:46 | 57.34297 | -7.14871 | 10377 ft | 301 kts | 146° |
| 2026-05-03 20:47 | 57.32535 | -7.12659 | 11078 ft | 312 kts | 147° |
| 2026-05-03 20:47 | 57.31613 | -7.11531 | 11465 ft | 316 kts | 148° |
| 2026-05-03 20:47 | 57.29749 | -7.09292 | 12275 ft | 321 kts | 149° |
| 2026-05-03 20:47 | 57.27853 | -7.07049 | 13109 ft | 326 kts | 149° |
| 2026-05-03 20:48 | 57.25947 | -7.04810 | 13961 ft | 331 kts | 149° |
| 2026-05-03 20:48 | 57.23962 | -7.02484 | 14731 ft | 336 kts | 149° |
| 2026-05-03 20:48 | 57.21997 | -7.00183 | 15494 ft | 341 kts | 149° |
| 2026-05-03 20:48 | 57.19983 | -6.97824 | 16273 ft | 346 kts | 149° |
| 2026-05-03 20:49 | 57.17932 | -6.95420 | 17062 ft | 349 kts | 149° |
| 2026-05-03 20:49 | 57.15871 | -6.93005 | 17925 ft | 353 kts | 149° |
| 2026-05-03 20:49 | 57.13789 | -6.90568 | 18660 ft | 358 kts | 149° |
| 2026-05-03 20:49 | 57.11663 | -6.88082 | 19341 ft | 363 kts | 149° |
| 2026-05-03 20:50 | 57.09544 | -6.85608 | 20027 ft | 368 kts | 149° |
| 2026-05-03 20:50 | 57.07369 | -6.83073 | 20731 ft | 372 kts | 149° |
| 2026-05-03 20:50 | 57.05162 | -6.80503 | 21437 ft | 377 kts | 149° |
| 2026-05-03 20:50 | 57.02928 | -6.77905 | 22147 ft | 381 kts | 149° |
| 2026-05-03 20:51 | 57.00674 | -6.75289 | 22830 ft | 386 kts | 149° |
| 2026-05-03 20:51 | 56.98379 | -6.72628 | 23515 ft | 390 kts | 149° |
| 2026-05-03 20:51 | 56.96070 | -6.69957 | 24093 ft | 395 kts | 148° |
| 2026-05-03 20:51 | 56.93756 | -6.67282 | 24616 ft | 399 kts | 148° |
| 2026-05-03 20:52 | 56.91397 | -6.64559 | 25172 ft | 402 kts | 148° |
| 2026-05-03 20:52 | 56.89027 | -6.61828 | 25727 ft | 404 kts | 148° |
| 2026-05-03 20:52 | 56.86626 | -6.59065 | 26207 ft | 408 kts | 148° |
| 2026-05-03 20:52 | 56.84211 | -6.56291 | 26691 ft | 412 kts | 147° |
| 2026-05-03 20:53 | 56.81769 | -6.53490 | 27168 ft | 416 kts | 147° |
| 2026-05-03 20:53 | 56.79302 | -6.50665 | 27607 ft | 419 kts | 147° |
| 2026-05-03 20:53 | 56.76824 | -6.47831 | 28035 ft | 422 kts | 147° |
| 2026-05-03 20:53 | 56.74343 | -6.44925 | 28464 ft | 425 kts | 146° |
| 2026-05-03 20:54 | 56.71889 | -6.41971 | 28865 ft | 428 kts | 145° |
| 2026-05-03 20:54 | 56.66895 | -6.35873 | 29649 ft | 433 kts | 144° |
| 2026-05-03 20:54 | 56.64391 | -6.32816 | 30161 ft | 433 kts | 144° |
| 2026-05-03 20:55 | 56.61889 | -6.29774 | 30572 ft | 433 kts | 144° |
| 2026-05-03 20:55 | 56.59388 | -6.26744 | 30924 ft | 433 kts | 144° |
| 2026-05-03 20:55 | 56.54371 | -6.20696 | 31032 ft | 435 kts | 144° |
| 2026-05-03 20:56 | 56.49314 | -6.14628 | 31031 ft | 435 kts | 144° |
| 2026-05-03 20:56 | 56.44264 | -6.08589 | 31029 ft | 435 kts | 144° |
| 2026-05-03 20:57 | 56.39206 | -6.02557 | 31025 ft | 434 kts | 144° |